Normed Antwerpen — V2DG9 — position and weather

sailwx.info

Track history (hours):
 
Tides and Currents Weather Stations Pressure Air Temp Water Temp Dewpoint Dewpoint Depression Visibility Wind Speed Wind Dir Waves Ship Positions

Normed Antwerpen

Last reported at 2015-May-22 17:33 UTC. Time now 2015-May-22 22:13 UTC.
Position N 34°31' E 031°45'.

Length 130 m; draft 6.2 m.

Type: Ship. MMSI: 305210993.

Date/timePositionNaut miles runAvg speedWind from/ knotsBaromVisibWave heightAir tempDewpointWater temp
2015-May-22 17:33N 34°31' E 031°45'1312.6
2015-May-22 16:33N 34°19' E 031°38'1412.6
2015-May-22 15:27N 34°07' E 031°30'32 0.7
2015-May-20 21:09N 33°45' E 031°57'812.6
2015-May-20 20:33N 33°49' E 032°04'1413.0
2015-May-20 19:31N 33°58' E 032°17'1513.1
2015-May-20 18:24N 34°07' E 032°31'1113.1
2015-May-20 17:34N 34°14' E 032°41'1313.1
2015-May-20 16:34N 34°22' E 032°53'1312.9
2015-May-20 15:33N 34°32' E 033°04'8 7.4
2015-May-20 14:31N 34°39' E 033°01'0 0.2
2015-May-20 13:33N 34°39' E 033°01'2 2.5
2015-May-20 12:33N 34°38' E 033°04'2 2.2
2015-May-20 11:33N 34°36' E 033°04'1110.6
2015-May-20 10:33N 34°31' E 032°53'1313.2
2015-May-20 09:33N 34°29' E 032°37'1413.5
2015-May-20 08:33N 34°28' E 032°20'1313.2
2015-May-20 07:33N 34°27' E 032°04'1413.7
2015-May-20 06:31N 34°25' E 031°47'1111.5
2015-May-20 05:33N 34°25' E 031°34'1411.0
2015-May-20 04:16N 34°25' E 031°17'1911.2
2015-May-20 02:33N 34°25' E 030°53'2211.3
2015-May-20 00:34N 34°25' E 030°26'13811.1
2015-May-19 12:09N 34°24' E 027°39'  
2015-May-15 14:21N 36°45' E 011°23'2413.3
2015-May-15 12:33N 37°09' E 011°19'1211.7
2015-May-15 11:33N 37°20' E 011°13'1313.0
2015-May-15 10:34N 37°24' E 010°58'37613.3
2015-May-14 06:22N 37°09' E 003°06'1113.3
2015-May-14 05:32N 37°07' E 002°52'1313.2
2015-May-14 04:33N 37°05' E 002°36'1313.2
2015-May-14 03:33N 37°03' E 002°20'1413.6
2015-May-14 02:32N 37°00' E 002°03'1313.5
2015-May-14 01:33N 36°57' E 001°47'1413.5
2015-May-14 00:32N 36°55' E 001°30'1413.9
2015-May-13 23:33N 36°53' E 001°13'1313.2
2015-May-13 22:33N 36°50' E 000°57'1313.1
2015-May-13 21:32N 36°48' E 000°40'1312.8
2015-May-13 20:33N 36°45' E 000°25'1312.7
2015-May-13 19:34N 36°43' E 000°09'1312.7
2015-May-13 18:33N 36°41' W 000°06'1312.6
2015-May-13 17:33N 36°38' W 000°22'1312.6
2015-May-13 16:33N 36°36' W 000°37'1312.7
2015-May-13 15:33N 36°34' W 000°53'1312.7
2015-May-13 14:33N 36°32' W 001°08'1512.7
2015-May-13 13:25N 36°29' W 001°26'1112.7
2015-May-13 12:33N 36°27' W 001°39'1313.0
2015-May-13 11:33N 36°25' W 001°55'1312.6
2015-May-13 10:33N 36°22' W 002°10'1312.7
2015-May-13 09:34N 36°20' W 002°26'1312.7
2015-May-13 08:33N 36°18' W 002°42'1312.9
2015-May-13 07:33N 36°16' W 002°57'1312.9
2015-May-13 06:33N 36°14' W 003°13'1312.6
2015-May-13 05:31N 36°12' W 003°29'8613.9
2015-May-12 23:21N 36°01' W 005°14'1114.2
2015-May-12 22:34N 35°58' W 005°28'  
Track history (hours):
 
Tides and Currents Weather Stations Pressure Air Temp Water Temp Dewpoint Dewpoint Depression Visibility Wind Speed Wind Dir Waves Ship Positions

Normed Antwerpen

Last reported at 2015-May-22 17:33 UTC. Time now 2015-May-22 22:13 UTC.
Position N 34°31' E 031°45'.

Length 130 m; draft 6.2 m.

Type: Ship. MMSI: 305210993.

Date/timePositionNaut miles runAvg speedWind from/ knotsBaromVisibWave heightAir tempDewpointWater temp
2015-May-22 17:33N 34°31' E 031°45'1312.6
2015-May-22 16:33N 34°19' E 031°38'1412.6
2015-May-22 15:27N 34°07' E 031°30'32 0.7
2015-May-20 21:09N 33°45' E 031°57'812.6
2015-May-20 20:33N 33°49' E 032°04'1413.0
2015-May-20 19:31N 33°58' E 032°17'1513.1
2015-May-20 18:24N 34°07' E 032°31'1113.1
2015-May-20 17:34N 34°14' E 032°41'1313.1
2015-May-20 16:34N 34°22' E 032°53'1312.9
2015-May-20 15:33N 34°32' E 033°04'8 7.4
2015-May-20 14:31N 34°39' E 033°01'0 0.2
2015-May-20 13:33N 34°39' E 033°01'2 2.5
2015-May-20 12:33N 34°38' E 033°04'2 2.2
2015-May-20 11:33N 34°36' E 033°04'1110.6
2015-May-20 10:33N 34°31' E 032°53'1313.2
2015-May-20 09:33N 34°29' E 032°37'1413.5
2015-May-20 08:33N 34°28' E 032°20'1313.2
2015-May-20 07:33N 34°27' E 032°04'1413.7
2015-May-20 06:31N 34°25' E 031°47'1111.5
2015-May-20 05:33N 34°25' E 031°34'1411.0
2015-May-20 04:16N 34°25' E 031°17'1911.2
2015-May-20 02:33N 34°25' E 030°53'2211.3
2015-May-20 00:34N 34°25' E 030°26'13811.1
2015-May-19 12:09N 34°24' E 027°39'  
2015-May-15 14:21N 36°45' E 011°23'2413.3
2015-May-15 12:33N 37°09' E 011°19'1211.7
2015-May-15 11:33N 37°20' E 011°13'1313.0
2015-May-15 10:34N 37°24' E 010°58'37613.3
2015-May-14 06:22N 37°09' E 003°06'1113.3
2015-May-14 05:32N 37°07' E 002°52'1313.2
2015-May-14 04:33N 37°05' E 002°36'1313.2
2015-May-14 03:33N 37°03' E 002°20'1413.6
2015-May-14 02:32N 37°00' E 002°03'1313.5
2015-May-14 01:33N 36°57' E 001°47'1413.5
2015-May-14 00:32N 36°55' E 001°30'1413.9
2015-May-13 23:33N 36°53' E 001°13'1313.2
2015-May-13 22:33N 36°50' E 000°57'1313.1
2015-May-13 21:32N 36°48' E 000°40'1312.8
2015-May-13 20:33N 36°45' E 000°25'1312.7
2015-May-13 19:34N 36°43' E 000°09'1312.7
2015-May-13 18:33N 36°41' W 000°06'1312.6
2015-May-13 17:33N 36°38' W 000°22'1312.6
2015-May-13 16:33N 36°36' W 000°37'1312.7
2015-May-13 15:33N 36°34' W 000°53'1312.7
2015-May-13 14:33N 36°32' W 001°08'1512.7
2015-May-13 13:25N 36°29' W 001°26'1112.7
2015-May-13 12:33N 36°27' W 001°39'1313.0
2015-May-13 11:33N 36°25' W 001°55'1312.6
2015-May-13 10:33N 36°22' W 002°10'1312.7
2015-May-13 09:34N 36°20' W 002°26'1312.7
2015-May-13 08:33N 36°18' W 002°42'1312.9
2015-May-13 07:33N 36°16' W 002°57'1312.9
2015-May-13 06:33N 36°14' W 003°13'1312.6
2015-May-13 05:31N 36°12' W 003°29'8613.9
2015-May-12 23:21N 36°01' W 005°14'1114.2
2015-May-12 22:34N 35°58' W 005°28'  

Dump ship's entire track history